Time;durP1;ratioP1;P1;durP2;ratioP2;P2;SDS_P1;SDS_P2;PMS_P1;PMS_P2;Temp;Humidity;BMP_temperature;BMP_pressure;BME280_temperature;BME280_humidity;BME280_pressure;Samples;Min_cycle;Max_cycle;Signal;HPM_P1;HPM_P2
2022/11/10 00:00:27;;;;;;;22.40;8.98;;;10.30;90.90;;;;;;5050686;28;20044;-76
2022/11/10 00:02:53;;;;;;;22.63;10.13;;;10.30;90.90;;;;;;5033673;28;20163;-78
2022/11/10 00:05:18;;;;;;;22.92;7.78;;;10.30;91.00;;;;;;5051520;28;20469;-75
2022/11/10 00:07:44;;;;;;;24.38;7.32;;;10.30;91.00;;;;;;5046618;28;20082;-74
2022/11/10 00:10:10;;;;;;;23.23;9.57;;;10.20;91.10;;;;;;5041733;28;20067;-74
2022/11/10 00:12:36;;;;;;;23.02;8.63;;;10.20;91.10;;;;;;5030278;28;20384;-75
2022/11/10 00:17:46;;;;;;;22.63;9.02;;;10.20;91.10;;;;;;5048132;28;20044;-77
2022/11/10 00:20:12;;;;;;;24.20;8.98;;;10.20;91.10;;;;;;5041118;28;20384;-74
2022/11/10 00:22:39;;;;;;;18.90;8.75;;;10.20;91.20;;;;;;5045983;28;20033;-75
2022/11/10 00:25:06;;;;;;;19.27;7.43;;;10.20;91.40;;;;;;5046584;28;20473;-77
2022/11/10 00:27:32;;;;;;;21.80;6.03;;;10.20;91.40;;;;;;5026494;28;20466;-75
2022/11/10 00:29:58;;;;;;;17.55;6.53;;;10.20;91.40;;;;;;5049214;28;20041;-75
2022/11/10 00:32:24;;;;;;;22.55;6.10;;;10.30;91.40;;;;;;5023651;28;20049;-75
2022/11/10 00:34:49;;;;;;;18.65;5.50;;;10.40;91.40;;;;;;5042826;28;20053;-74
2022/11/10 00:37:15;;;;;;;18.35;5.38;;;10.40;91.40;;;;;;5029625;28;20543;-75
2022/11/10 00:39:41;;;;;;;16.85;6.47;;;10.40;91.50;;;;;;5048288;28;20132;-76
2022/11/10 00:42:06;;;;;;;19.92;6.20;;;10.50;91.50;;;;;;5024852;28;20035;-74
2022/11/10 00:44:32;;;;;;;19.23;6.88;;;10.50;91.30;;;;;;5031329;28;20052;-76
2022/11/10 00:46:58;;;;;;;20.55;7.25;;;10.60;91.30;;;;;;5049251;28;20076;-75
2022/11/10 00:49:24;;;;;;;21.73;7.70;;;10.60;91.20;;;;;;5028969;28;20033;-77
2022/11/10 00:51:49;;;;;;;21.70;8.45;;;10.50;91.10;;;;;;5031257;28;20044;-76
2022/11/10 00:54:15;;;;;;;23.65;7.53;;;10.50;90.90;;;;;;5048398;28;20057;-74
2022/11/10 00:56:40;;;;;;;21.27;7.25;;;10.50;90.80;;;;;;5031826;28;20544;-73
2022/11/10 00:59:06;;;;;;;20.20;6.82;;;10.50;90.90;;;;;;5032645;28;20409;-77
2022/11/10 01:01:32;;;;;;;22.95;6.40;;;10.50;90.80;;;;;;5040600;28;20037;-74
2022/11/10 01:03:58;;;;;;;17.58;5.93;;;10.40;90.90;;;;;;5030600;28;20473;-75
2022/11/10 01:06:23;;;;;;;19.98;7.75;;;10.40;90.90;;;;;;5030847;28;20036;-75
2022/11/10 01:08:49;;;;;;;24.33;7.28;;;10.30;90.90;;;;;;5029718;28;20446;-74
2022/11/10 01:11:21;;;;;;;22.27;7.63;;;10.30;91.00;;;;;;5044578;28;20033;-76
2022/11/10 01:13:48;;;;;;;23.02;7.38;;;10.20;91.10;;;;;;5022758;28;20055;-76
2022/11/10 01:16:20;;;;;;;18.17;6.82;;;10.30;91.20;;;;;;5030602;28;20033;-74
2022/11/10 01:18:50;;;;;;;18.55;7.25;;;10.20;91.20;;;;;;5047353;28;20045;-75
2022/11/10 01:21:16;;;;;;;24.75;8.43;;;10.20;91.30;;;;;;5035237;28;20048;-76
2022/11/10 01:23:42;;;;;;;33.10;9.57;;;10.10;91.20;;;;;;5047309;28;20040;-75
2022/11/10 01:26:08;;;;;;;22.50;7.57;;;10.10;91.20;;;;;;5030274;28;20144;-75
2022/11/10 01:28:35;;;;;;;30.92;9.05;;;10.10;91.40;;;;;;5029789;28;20113;-75
2022/11/10 01:31:16;;;;;;;27.88;9.93;;;10.00;91.40;;;;;;5047718;28;20448;-75
2022/11/10 01:33:42;;;;;;;22.70;9.63;;;9.90;91.40;;;;;;5025469;28;20417;-76
2022/11/10 01:36:09;;;;;;;24.90;8.02;;;9.90;91.40;;;;;;5026718;28;20059;-75
2022/11/10 01:38:36;;;;;;;26.75;8.27;;;9.90;91.40;;;;;;5047017;28;20036;-75
2022/11/10 01:41:04;;;;;;;23.85;8.88;;;9.80;91.40;;;;;;5030353;28;20125;-75
2022/11/10 01:43:31;;;;;;;22.13;6.90;;;9.80;91.50;;;;;;5026694;28;20116;-77
2022/11/10 01:46:00;;;;;;;18.92;7.57;;;9.80;91.50;;;;;;5030478;28;20059;-76
2022/11/10 01:48:58;;;;;;;21.58;6.30;;;9.70;91.40;;;;;;5028999;28;20204;-76
2022/11/10 01:51:27;;;;;;;22.27;5.55;;;9.70;91.50;;;;;;5021810;28;20044;-79
2022/11/10 01:53:59;;;;;;;19.35;5.82;;;9.60;91.40;;;;;;5043703;28;20638;-77
2022/11/10 01:56:27;;;;;;;20.00;6.40;;;9.60;91.50;;;;;;5044679;28;20033;-74
2022/11/10 01:58:57;;;;;;;19.13;6.35;;;9.50;91.70;;;;;;5047454;28;20119;-77
2022/11/10 02:01:24;;;;;;;24.15;5.90;;;9.50;91.60;;;;;;5029479;28;20063;-75
2022/11/10 02:04:08;;;;;;;16.35;6.45;;;9.50;91.70;;;;;;5028849;28;20090;-75
2022/11/10 02:06:37;;;;;;;15.27;5.33;;;9.50;91.70;;;;;;5046907;28;20079;-75
2022/11/10 02:09:03;;;;;;;16.88;6.00;;;9.50;91.70;;;;;;5046757;28;20029;-75
2022/11/10 02:11:30;;;;;;;17.33;6.55;;;9.50;91.60;;;;;;5044591;28;20635;-75
2022/11/10 02:13:56;;;;;;;21.70;5.35;;;9.50;91.60;;;;;;5036420;28;20040;-75
2022/11/10 02:16:23;;;;;;;17.27;5.50;;;9.60;91.60;;;;;;5021337;28;20025;-79
2022/11/10 02:18:48;;;;;;;17.27;5.47;;;9.60;91.70;;;;;;5035342;28;20033;-75
2022/11/10 02:21:19;;;;;;;20.90;5.30;;;9.60;91.50;;;;;;5053174;28;20049;-79
2022/11/10 02:23:52;;;;;;;18.13;5.57;;;9.70;91.60;;;;;;5039065;28;20549;-73
2022/11/10 02:26:27;;;;;;;21.63;6.05;;;9.70;91.60;;;;;;5028753;28;20086;-75
2022/11/10 02:28:53;;;;;;;20.92;6.65;;;9.80;91.60;;;;;;5046208;28;20046;-76
2022/11/10 02:31:18;;;;;;;17.85;5.65;;;9.80;91.50;;;;;;5047688;28;20032;-75
2022/11/10 02:33:44;;;;;;;13.80;4.85;;;9.80;91.40;;;;;;5045178;28;20037;-75
2022/11/10 02:36:10;;;;;;;18.00;5.63;;;9.90;91.50;;;;;;5028402;28;20366;-76
2022/11/10 02:38:36;;;;;;;19.67;5.38;;;9.90;91.40;;;;;;5027445;28;20090;-75
2022/11/10 02:41:02;;;;;;;18.00;6.78;;;9.90;91.40;;;;;;5021884;28;20025;-76
2022/11/10 02:43:28;;;;;;;21.60;4.82;;;9.90;91.40;;;;;;5027935;28;20033;-80
2022/11/10 02:45:53;;;;;;;17.27;5.18;;;9.90;91.40;;;;;;5044816;28;20148;-75
2022/11/10 02:48:19;;;;;;;19.40;5.65;;;9.90;91.40;;;;;;5046737;28;20115;-79
2022/11/10 02:50:45;;;;;;;14.25;4.10;;;9.90;91.30;;;;;;5028202;28;20086;-75
2022/11/10 02:53:10;;;;;;;16.83;5.18;;;9.90;91.30;;;;;;5046284;28;20091;-74
2022/11/10 02:55:36;;;;;;;19.55;4.68;;;9.90;91.30;;;;;;5039355;28;20029;-75
2022/11/10 02:58:02;;;;;;;19.90;4.95;;;9.90;91.30;;;;;;5045005;28;20022;-75
2022/11/10 03:00:28;;;;;;;18.58;5.22;;;9.90;91.30;;;;;;5046284;28;20516;-76
2022/11/10 03:02:58;;;;;;;23.95;5.45;;;9.80;91.30;;;;;;5027171;28;20033;-76
2022/11/10 03:05:24;;;;;;;16.20;4.50;;;9.80;91.40;;;;;;5028881;28;20033;-76
2022/11/10 03:07:57;;;;;;;20.65;4.95;;;9.80;91.40;;;;;;5028180;28;20531;-76
2022/11/10 03:10:24;;;;;;;22.17;5.38;;;9.70;91.30;;;;;;5028861;28;20345;-76
2022/11/10 03:12:54;;;;;;;14.95;4.53;;;9.70;91.40;;;;;;5027809;28;20039;-76
2022/11/10 03:15:20;;;;;;;19.38;5.32;;;9.70;91.50;;;;;;5037357;28;20041;-76
2022/11/10 03:17:45;;;;;;;21.15;5.55;;;9.80;91.60;;;;;;5045588;28;20471;-76
2022/11/10 03:20:11;;;;;;;15.98;4.80;;;9.70;91.50;;;;;;5046396;28;20037;-76
2022/11/10 03:22:36;;;;;;;18.08;5.32;;;9.70;91.60;;;;;;5044161;28;20473;-77
2022/11/10 03:25:02;;;;;;;22.83;4.80;;;9.70;91.60;;;;;;5046815;28;20469;-76
2022/11/10 03:27:28;;;;;;;16.55;4.65;;;9.70;91.60;;;;;;5026976;28;20024;-76
2022/11/10 03:29:54;;;;;;;21.02;5.28;;;9.70;91.60;;;;;;5047265;28;20120;-76
2022/11/10 03:32:19;;;;;;;19.67;5.25;;;9.70;91.70;;;;;;5045658;28;20116;-76
2022/11/10 03:34:45;;;;;;;14.38;4.10;;;9.70;91.70;;;;;;5028221;28;20600;-74
2022/11/10 03:37:11;;;;;;;15.75;4.38;;;9.80;91.70;;;;;;5046815;28;20033;-75
2022/11/10 03:39:37;;;;;;;17.08;5.30;;;9.80;91.70;;;;;;5055204;28;20029;-75
2022/11/10 03:42:02;;;;;;;19.45;4.10;;;9.90;91.70;;;;;;5027804;28;20037;-75
2022/11/10 03:44:28;;;;;;;19.30;5.15;;;9.90;91.70;;;;;;5027832;28;20481;-76
2022/11/10 03:46:54;;;;;;;15.52;4.28;;;10.00;91.60;;;;;;5028023;28;20397;-76
2022/11/10 03:49:19;;;;;;;21.80;5.57;;;9.90;91.50;;;;;;5050391;28;20064;-76
2022/11/10 03:51:45;;;;;;;19.35;4.32;;;10.00;91.50;;;;;;5050323;28;20022;-75
2022/11/10 03:54:10;;;;;;;15.18;4.10;;;9.90;91.40;;;;;;5048922;28;20033;-76
2022/11/10 03:56:36;;;;;;;22.30;4.82;;;9.90;91.30;;;;;;5042459;28;20428;-77
2022/11/10 03:59:02;;;;;;;17.92;4.03;;;9.90;91.40;;;;;;5031538;28;20030;-76
2022/11/10 04:01:27;;;;;;;17.30;4.53;;;9.80;91.30;;;;;;5041320;28;20025;-76
2022/11/10 04:03:53;;;;;;;18.23;4.82;;;9.80;91.30;;;;;;5030325;28;20405;-77
2022/11/10 04:09:05;;;;;;;17.90;4.15;;;9.60;91.40;;;;;;5049171;28;20071;-75
2022/11/10 04:17:01;;;;;;;18.42;5.43;;;9.60;91.50;;;;;;5048791;28;20778;-76
2022/11/10 04:19:27;;;;;;;20.52;5.18;;;9.60;91.50;;;;;;5033347;28;20131;-75
2022/11/10 04:21:52;;;;;;;21.13;4.95;;;9.50;91.60;;;;;;5042964;28;20128;-79
2022/11/10 04:24:18;;;;;;;15.93;3.80;;;9.50;91.60;;;;;;5049169;28;20043;-75
2022/11/10 04:26:46;;;;;;;16.17;4.30;;;9.40;91.60;;;;;;5031483;28;20025;-75
2022/11/10 04:29:13;;;;;;;17.85;4.65;;;9.40;91.70;;;;;;5047622;28;20063;-74
2022/11/10 04:31:40;;;;;;;17.38;4.80;;;9.40;91.80;;;;;;5031961;28;20404;-75
2022/11/10 04:34:11;;;;;;;18.40;4.88;;;9.40;91.90;;;;;;5036943;28;20516;-75
2022/11/10 04:36:39;;;;;;;18.10;4.65;;;9.40;92.00;;;;;;5046883;28;20469;-75
2022/11/10 04:39:06;;;;;;;19.05;4.45;;;9.30;91.90;;;;;;5042815;28;20037;-76
2022/11/10 04:41:31;;;;;;;20.30;4.30;;;9.30;92.00;;;;;;5044514;28;20095;-77
2022/11/10 04:43:59;;;;;;;15.55;5.10;;;9.30;92.10;;;;;;5049629;28;20150;-76
2022/11/10 04:46:36;;;;;;;17.40;4.43;;;9.30;92.10;;;;;;5048360;28;20041;-75
2022/11/10 04:49:04;;;;;;;14.98;3.90;;;9.20;92.10;;;;;;5030328;28;20343;-75
2022/11/10 04:51:35;;;;;;;25.15;4.55;;;9.30;92.20;;;;;;5030383;28;20037;-75
2022/11/10 04:54:01;;;;;;;16.65;4.82;;;9.20;92.10;;;;;;5031226;28;20457;-75
2022/11/10 04:56:28;;;;;;;20.85;5.28;;;9.10;92.10;;;;;;5028048;28;20401;-75
2022/11/10 04:58:54;;;;;;;20.75;5.07;;;9.10;92.30;;;;;;5055307;28;20025;-75
2022/11/10 05:01:22;;;;;;;22.98;5.30;;;9.10;92.20;;;;;;5052562;28;20033;-74
2022/11/10 05:03:49;;;;;;;15.68;4.85;;;9.10;92.20;;;;;;5040386;28;20037;-75
2022/11/10 05:06:15;;;;;;;16.50;5.47;;;9.10;92.30;;;;;;5045929;28;20572;-74
2022/11/10 05:08:41;;;;;;;17.50;4.93;;;9.20;92.30;;;;;;5047087;28;20500;-77
2022/11/10 05:11:07;;;;;;;21.88;6.47;;;9.10;92.30;;;;;;5044132;28;20391;-76
2022/11/10 05:13:33;;;;;;;19.60;5.55;;;9.10;92.30;;;;;;5042787;28;20112;-74
2022/11/10 05:15:59;;;;;;;18.50;4.93;;;9.10;92.30;;;;;;5027830;28;20041;-75
2022/11/10 05:18:25;;;;;;;17.90;6.10;;;9.10;92.30;;;;;;5024062;28;20067;-75
2022/11/10 05:20:52;;;;;;;22.67;5.53;;;9.10;92.30;;;;;;5030663;28;20463;-76
2022/11/10 05:23:37;;;;;;;15.65;4.88;;;9.10;92.30;;;;;;5041420;28;20034;-77
2022/11/10 05:26:12;;;;;;;28.73;6.38;;;9.00;92.30;;;;;;5026898;28;20034;-76
2022/11/10 05:28:39;;;;;;;18.60;5.53;;;9.00;92.40;;;;;;5026185;28;20497;-76
2022/11/10 05:31:05;;;;;;;19.10;5.15;;;9.00;92.50;;;;;;5038076;28;20409;-76
2022/11/10 05:33:31;;;;;;;20.60;5.25;;;9.00;92.50;;;;;;5042720;28;20210;-76
2022/11/10 05:35:57;;;;;;;19.48;4.93;;;9.00;92.60;;;;;;5033017;28;20046;-75
2022/11/10 05:38:23;;;;;;;22.50;5.10;;;9.00;92.60;;;;;;5042419;28;20055;-79
2022/11/10 05:40:48;;;;;;;21.10;5.85;;;9.00;92.60;;;;;;5026336;28;20049;-74
2022/11/10 05:43:14;;;;;;;18.42;5.57;;;9.10;92.60;;;;;;5032165;28;20484;-76
2022/11/10 05:45:40;;;;;;;17.48;5.10;;;9.10;92.60;;;;;;5038311;28;20116;-74
2022/11/10 05:48:06;;;;;;;21.38;4.70;;;9.10;92.70;;;;;;5022945;28;20440;-76
2022/11/10 05:50:31;;;;;;;18.50;5.30;;;9.10;92.70;;;;;;5035100;28;20583;-78
2022/11/10 05:52:57;;;;;;;21.67;6.15;;;9.10;92.70;;;;;;5039799;28;20044;-76
2022/11/10 05:55:26;;;;;;;21.50;5.32;;;9.20;92.70;;;;;;5038846;28;20434;-80
2022/11/10 05:57:53;;;;;;;21.88;5.85;;;9.20;92.70;;;;;;5038470;28;20048;-76
2022/11/10 06:00:21;;;;;;;20.80;6.15;;;9.30;92.70;;;;;;5041768;28;20321;-77
2022/11/10 06:02:56;;;;;;;21.95;4.72;;;9.30;92.70;;;;;;5025601;28;20041;-76
2022/11/10 06:05:22;;;;;;;25.33;6.35;;;9.40;92.70;;;;;;5034125;28;20040;-77
2022/11/10 06:07:48;;;;;;;21.83;5.07;;;9.40;92.70;;;;;;5034951;28;20108;-76
2022/11/10 06:10:13;;;;;;;18.85;4.72;;;9.40;92.60;;;;;;5037918;28;20136;-75
2022/11/10 06:12:39;;;;;;;24.13;5.30;;;9.50;92.60;;;;;;5044291;28;20033;-75
2022/11/10 06:15:05;;;;;;;21.17;5.65;;;9.40;92.60;;;;;;5022558;28;20040;-75
2022/11/10 06:17:31;;;;;;;17.35;4.18;;;9.50;92.60;;;;;;5029683;28;20042;-74
2022/11/10 06:19:56;;;;;;;17.60;5.18;;;9.50;92.50;;;;;;5051649;28;20052;-75
2022/11/10 06:22:22;;;;;;;22.10;5.90;;;9.50;92.50;;;;;;5041813;28;20044;-75
2022/11/10 06:24:47;;;;;;;24.27;5.07;;;9.50;92.50;;;;;;5043624;28;20059;-76
2022/11/10 06:27:13;;;;;;;17.20;5.68;;;9.40;92.40;;;;;;5036512;28;20048;-76
2022/11/10 06:29:39;;;;;;;20.45;5.70;;;9.40;92.40;;;;;;5043805;28;20045;-75
2022/11/10 06:32:04;;;;;;;19.55;5.45;;;9.40;92.50;;;;;;5026303;28;20029;-75
2022/11/10 06:34:30;;;;;;;18.73;5.40;;;9.40;92.40;;;;;;5045998;28;20025;-75
2022/11/10 06:36:56;;;;;;;16.92;5.20;;;9.30;92.40;;;;;;5043515;28;20487;-76
2022/11/10 06:39:21;;;;;;;14.75;4.95;;;9.30;92.40;;;;;;5040127;28;20474;-77
2022/11/10 06:41:47;;;;;;;18.77;4.90;;;9.20;92.40;;;;;;5024569;28;20079;-75
2022/11/10 06:44:13;;;;;;;20.67;7.07;;;9.20;92.40;;;;;;5037104;28;20521;-75
2022/11/10 06:46:38;;;;;;;19.75;5.45;;;9.10;92.50;;;;;;5042635;28;20635;-75
2022/11/10 06:49:04;;;;;;;14.95;5.65;;;9.10;92.50;;;;;;5024486;28;20401;-75
2022/11/10 06:51:30;;;;;;;17.80;5.25;;;9.10;92.50;;;;;;5025139;28;20124;-77
2022/11/10 06:53:55;;;;;;;22.80;6.18;;;9.10;92.50;;;;;;5044333;28;20045;-76
2022/11/10 06:56:21;;;;;;;18.15;5.85;;;9.10;92.40;;;;;;5025476;28;20052;-78
2022/11/10 06:58:46;;;;;;;21.50;6.22;;;9.10;92.40;;;;;;5022461;28;20516;-75
2022/11/10 07:01:12;;;;;;;19.13;6.78;;;9.10;92.40;;;;;;5033117;28;20425;-75
2022/11/10 07:03:38;;;;;;;20.90;6.72;;;9.00;92.30;;;;;;5025512;28;20037;-76
2022/11/10 07:06:05;;;;;;;19.00;5.78;;;9.10;92.30;;;;;;5024871;28;20394;-75
2022/11/10 07:08:30;;;;;;;15.30;5.97;;;9.00;92.20;;;;;;5045171;28;20036;-75
2022/11/10 07:10:56;;;;;;;20.08;6.15;;;9.00;92.20;;;;;;5028774;28;20049;-75
2022/11/10 07:13:22;;;;;;;17.73;6.25;;;8.90;92.20;;;;;;5046324;28;20087;-75
2022/11/10 07:15:48;;;;;;;20.75;5.72;;;8.90;92.20;;;;;;5045711;28;20060;-75
2022/11/10 07:18:13;;;;;;;21.85;6.43;;;8.90;92.30;;;;;;5028174;28;20033;-75
2022/11/10 07:20:40;;;;;;;19.88;5.50;;;8.90;92.30;;;;;;5028703;28;20111;-75
2022/11/10 07:23:07;;;;;;;20.50;6.22;;;8.90;92.20;;;;;;5047193;28;20156;-76
2022/11/10 07:25:35;;;;;;;21.75;6.00;;;8.90;92.20;;;;;;5050991;28;20461;-75
2022/11/10 07:28:06;;;;;;;25.25;7.60;;;8.90;92.30;;;;;;5030780;28;20029;-76
2022/11/10 07:30:34;;;;;;;19.88;6.50;;;9.00;92.20;;;;;;5051066;28;20135;-75
2022/11/10 07:33:09;;;;;;;24.73;7.63;;;9.00;92.10;;;;;;5049517;28;20037;-75
2022/11/10 07:35:36;;;;;;;18.48;6.13;;;9.00;91.90;;;;;;5030281;28;20052;-76
2022/11/10 07:38:04;;;;;;;21.88;6.68;;;9.00;92.00;;;;;;5048923;28;20037;-78
2022/11/10 07:40:30;;;;;;;23.33;8.80;;;9.10;92.00;;;;;;5054683;28;20029;-75
2022/11/10 07:42:55;;;;;;;23.98;9.02;;;9.10;91.90;;;;;;5048794;28;20516;-74
2022/11/10 07:45:21;;;;;;;29.67;9.77;;;9.10;91.90;;;;;;5044001;28;20159;-74
2022/11/10 07:47:47;;;;;;;16.63;7.85;;;9.10;91.80;;;;;;5046817;28;20132;-74
2022/11/10 07:50:13;;;;;;;21.38;7.65;;;9.10;91.90;;;;;;5048909;28;20049;-75
2022/11/10 07:52:38;;;;;;;18.45;8.73;;;9.20;91.90;;;;;;5048491;28;20155;-77
2022/11/10 07:55:05;;;;;;;26.20;8.73;;;9.30;91.80;;;;;;5031869;28;20036;-76
2022/11/10 07:57:32;;;;;;;24.77;9.05;;;9.30;91.80;;;;;;5031608;28;20500;-76
2022/11/10 07:59:58;;;;;;;24.02;9.52;;;9.30;91.80;;;;;;5048563;28;20048;-75
2022/11/10 08:02:23;;;;;;;21.70;9.02;;;9.40;91.70;;;;;;5049087;28;20025;-76
2022/11/10 08:04:49;;;;;;;21.95;8.20;;;9.40;91.60;;;;;;5039741;28;20116;-75
2022/11/10 08:07:15;;;;;;;24.95;9.00;;;9.50;91.50;;;;;;5048909;28;20059;-76
2022/11/10 08:09:40;;;;;;;21.75;8.40;;;9.60;91.40;;;;;;5030593;28;20041;-75
2022/11/10 08:12:06;;;;;;;21.65;7.63;;;9.60;91.30;;;;;;5048461;28;20051;-75
2022/11/10 08:14:32;;;;;;;29.55;8.13;;;9.60;91.20;;;;;;5019181;28;20491;-76
2022/11/10 08:16:57;;;;;;;24.55;9.70;;;9.70;91.10;;;;;;5031705;28;20448;-75
2022/11/10 08:19:23;;;;;;;20.92;8.32;;;9.80;91.00;;;;;;5048339;28;20033;-77
2022/11/10 08:21:48;;;;;;;27.40;10.05;;;9.90;90.90;;;;;;5048969;28;20067;-76
2022/11/10 08:24:14;;;;;;;27.00;10.75;;;10.00;90.60;;;;;;5030493;28;20500;-76
2022/11/10 08:26:40;;;;;;;23.15;9.10;;;10.10;90.40;;;;;;5032142;28;20037;-77
2022/11/10 08:29:06;;;;;;;23.55;7.13;;;10.10;90.20;;;;;;5029890;28;20102;-77
2022/11/10 08:31:33;;;;;;;21.63;7.07;;;10.30;90.00;;;;;;5031550;28;20037;-77
2022/11/10 08:33:58;;;;;;;21.17;5.35;;;10.30;89.60;;;;;;5045064;28;20029;-77
2022/11/10 08:36:24;;;;;;;18.73;5.88;;;10.50;89.30;;;;;;5049030;28;20400;-78
2022/11/10 08:38:50;;;;;;;24.27;5.57;;;10.60;88.90;;;;;;5029641;28;20044;-76
2022/11/10 08:41:16;;;;;;;17.75;5.85;;;10.60;88.50;;;;;;5048142;28;20112;-76
2022/11/10 08:43:42;;;;;;;16.95;4.80;;;10.70;88.20;;;;;;5029255;28;20982;-76
2022/11/10 08:46:07;;;;;;;20.00;6.07;;;10.80;88.10;;;;;;5049228;28;20052;-76
2022/11/10 08:48:33;;;;;;;16.80;5.30;;;10.90;87.60;;;;;;5030120;28;20075;-77
2022/11/10 08:51:00;;;;;;;17.17;5.70;;;11.00;87.20;;;;;;5050166;28;20075;-76
2022/11/10 08:53:26;;;;;;;16.10;5.53;;;11.10;87.00;;;;;;5028940;28;20022;-77
2022/11/10 08:55:52;;;;;;;20.52;5.35;;;11.20;86.90;;;;;;5043501;28;20082;-76
2022/11/10 08:58:22;;;;;;;18.40;5.45;;;11.40;86.30;;;;;;5040142;28;20025;-76
2022/11/10 09:00:49;;;;;;;16.50;4.65;;;11.50;86.20;;;;;;5046981;28;20041;-77
2022/11/10 09:03:20;;;;;;;19.27;5.78;;;11.60;85.70;;;;;;5045425;28;20029;-77
2022/11/10 09:05:47;;;;;;;22.80;5.45;;;11.80;85.40;;;;;;5048496;28;20496;-76
2022/11/10 09:08:13;;;;;;;16.83;5.25;;;11.80;84.40;;;;;;5030754;28;20033;-75
2022/11/10 09:10:43;;;;;;;21.45;5.70;;;12.00;84.20;;;;;;5049091;28;20235;-75
2022/11/10 09:13:10;;;;;;;19.80;6.20;;;12.10;84.10;;;;;;5031610;28;20052;-75
2022/11/10 09:15:36;;;;;;;21.88;5.43;;;12.20;83.20;;;;;;5047883;28;20033;-76
2022/11/10 09:18:03;;;;;;;16.85;5.10;;;12.50;82.90;;;;;;5046751;28;20044;-75
2022/11/10 09:20:30;;;;;;;19.02;4.50;;;12.50;82.40;;;;;;5032522;28;20219;-75
2022/11/10 09:23:02;;;;;;;12.63;4.32;;;12.60;82.40;;;;;;5044273;28;20072;-75
2022/11/10 09:25:28;;;;;;;18.05;5.40;;;12.70;82.00;;;;;;5045549;28;20104;-75
2022/11/10 09:27:53;;;;;;;14.95;4.75;;;12.90;81.70;;;;;;5042782;28;20183;-77
2022/11/10 09:30:19;;;;;;;16.33;3.92;;;13.00;81.30;;;;;;5030130;28;20040;-75
2022/11/10 09:32:47;;;;;;;14.90;4.75;;;13.10;80.80;;;;;;5047944;28;20553;-75
2022/11/10 09:35:13;;;;;;;12.95;4.07;;;13.10;80.80;;;;;;5028048;28;20642;-76
2022/11/10 09:37:39;;;;;;;16.90;5.07;;;13.10;80.70;;;;;;5047592;28;20036;-76
2022/11/10 09:40:05;;;;;;;15.30;4.28;;;13.00;81.10;;;;;;5044011;28;20426;-76
2022/11/10 09:42:35;;;;;;;19.15;5.32;;;13.00;81.10;;;;;;5023426;28;20032;-76
2022/11/10 09:45:26;;;;;;;13.85;4.50;;;13.10;81.00;;;;;;5029262;28;20037;-76
2022/11/10 09:48:05;;;;;;;12.32;5.00;;;13.10;80.90;;;;;;5034424;28;20077;-76
2022/11/10 09:50:57;;;;;;;13.00;4.22;;;13.20;80.70;;;;;;5029158;28;20508;-76
2022/11/10 09:53:48;;;;;;;15.27;4.38;;;13.30;80.40;;;;;;5028533;28;20385;-79
2022/11/10 09:56:21;;;;;;;16.13;4.50;;;13.50;80.20;;;;;;5023612;28;20128;-77
2022/11/10 09:58:47;;;;;;;11.70;4.22;;;13.40;80.10;;;;;;5029282;28;20059;-75
2022/11/10 10:01:33;;;;;;;14.90;4.70;;;13.60;79.70;;;;;;5029254;28;20478;-76
2022/11/10 10:04:14;;;;;;;17.17;4.03;;;13.60;79.50;;;;;;5038095;28;20036;-76
2022/11/10 10:07:07;;;;;;;13.35;4.20;;;13.70;79.80;;;;;;5029795;28;20044;-75
2022/11/10 10:10:07;;;;;;;12.98;4.07;;;13.80;79.00;;;;;;5018884;28;20374;-76
2022/11/10 10:12:39;;;;;;;15.27;4.22;;;13.70;78.70;;;;;;5027009;28;20045;-75
2022/11/10 10:15:21;;;;;;;13.13;4.30;;;13.80;78.60;;;;;;5028922;28;20029;-76
2022/11/10 10:18:25;;;;;;;16.42;4.78;;;14.00;78.50;;;;;;5057748;28;20037;-76
2022/11/10 10:21:14;;;;;;;16.60;4.43;;;14.00;78.40;;;;;;5019617;28;20190;-75
2022/11/10 10:23:51;;;;;;;13.68;4.22;;;14.10;78.00;;;;;;5021970;28;20396;-75
2022/11/10 10:26:21;;;;;;;16.52;4.22;;;13.90;78.10;;;;;;5028106;28;20032;-74
2022/11/10 10:28:49;;;;;;;13.43;4.60;;;13.80;78.20;;;;;;5028951;28;20037;-77
2022/11/10 10:31:19;;;;;;;14.57;4.03;;;13.80;78.30;;;;;;5028524;28;20040;-75
2022/11/10 10:33:45;;;;;;;12.13;3.88;;;13.60;78.80;;;;;;5028273;28;20041;-75
2022/11/10 10:36:18;;;;;;;16.92;3.97;;;13.40;79.50;;;;;;5029033;28;20132;-75
2022/11/10 10:38:49;;;;;;;12.32;4.13;;;13.50;79.80;;;;;;5042978;28;20034;-75
2022/11/10 10:41:26;;;;;;;15.20;4.40;;;13.60;79.60;;;;;;5043176;28;20087;-76
2022/11/10 10:43:55;;;;;;;14.35;4.30;;;13.90;79.20;;;;;;5043480;28;20108;-77
2022/11/10 10:46:25;;;;;;;13.10;4.25;;;14.10;78.70;;;;;;5040613;28;20314;-76
2022/11/10 10:49:13;;;;;;;15.75;4.18;;;14.20;77.40;;;;;;5028654;28;20556;-76
2022/11/10 10:51:39;;;;;;;13.35;3.60;;;14.40;77.10;;;;;;5028780;28;20370;-76
2022/11/10 10:54:22;;;;;;;14.73;4.05;;;14.50;77.00;;;;;;5046207;28;20116;-76
2022/11/10 10:56:48;;;;;;;14.57;4.25;;;14.60;76.30;;;;;;5039008;28;20549;-76
2022/11/10 10:59:22;;;;;;;13.32;3.78;;;14.60;76.50;;;;;;5052862;28;20037;-75
2022/11/10 11:01:53;;;;;;;12.63;3.65;;;14.70;76.00;;;;;;5053302;28;20060;-75
2022/11/10 11:04:26;;;;;;;15.25;4.60;;;15.00;76.20;;;;;;5050162;28;20076;-77
2022/11/10 11:06:57;;;;;;;13.13;4.60;;;15.10;75.20;;;;;;5048714;28;20060;-74
2022/11/10 11:09:29;;;;;;;13.10;4.63;;;15.30;74.80;;;;;;5034723;28;20033;-77
2022/11/10 11:12:05;;;;;;;14.90;4.45;;;15.50;74.20;;;;;;5035074;28;20044;-76
2022/11/10 11:14:31;;;;;;;12.30;4.68;;;15.60;73.70;;;;;;5035070;28;20036;-76
2022/11/10 11:17:10;;;;;;;15.90;4.80;;;15.50;73.60;;;;;;5034890;28;20449;-76
2022/11/10 11:19:37;;;;;;;17.42;5.32;;;15.30;73.70;;;;;;5046415;28;20032;-76
2022/11/10 11:22:06;;;;;;;17.35;4.97;;;15.10;74.10;;;;;;5052503;28;20033;-78
2022/11/10 11:24:37;;;;;;;13.55;5.00;;;14.90;74.70;;;;;;5052809;28;20396;-78
2022/11/10 11:27:09;;;;;;;17.80;4.43;;;14.90;75.40;;;;;;5034784;28;20508;-78
2022/11/10 11:29:45;;;;;;;11.82;4.15;;;14.80;75.50;;;;;;5040065;28;20036;-77
2022/11/10 11:32:22;;;;;;;14.82;4.88;;;14.90;75.50;;;;;;5034737;28;20132;-78
2022/11/10 11:35:19;;;;;;;16.17;4.28;;;15.00;75.60;;;;;;5020086;28;20036;-77
2022/11/10 11:37:48;;;;;;;12.25;4.20;;;15.10;75.10;;;;;;5033493;28;20048;-76
2022/11/10 11:40:20;;;;;;;13.45;3.63;;;15.10;74.70;;;;;;5040778;28;20094;-79
2022/11/10 11:43:01;;;;;;;14.15;3.70;;;15.10;75.30;;;;;;5028442;28;20037;-76
2022/11/10 11:45:35;;;;;;;13.32;4.30;;;15.10;75.10;;;;;;5048529;28;20045;-75
2022/11/10 11:48:13;;;;;;;16.38;4.40;;;15.10;75.00;;;;;;5045136;28;20040;-76
2022/11/10 11:50:46;;;;;;;14.05;3.97;;;15.10;75.50;;;;;;5048311;28;20512;-76
2022/11/10 11:54:04;;;;;;;13.75;3.80;;;15.10;75.00;;;;;;5034127;28;20028;-75
2022/11/10 11:56:34;;;;;;;13.73;3.72;;;15.30;75.10;;;;;;4988426;28;20031;-76
2022/11/10 11:59:37;;;;;;;14.40;4.45;;;15.30;74.40;;;;;;4974561;28;20022;-76
2022/11/10 12:02:37;;;;;;;13.05;4.18;;;15.30;74.70;;;;;;5035275;28;20072;-76
2022/11/10 12:05:14;;;;;;;14.77;4.15;;;15.60;74.20;;;;;;5048092;28;20113;-76
2022/11/10 12:07:49;;;;;;;13.48;4.03;;;15.60;73.80;;;;;;5050504;28;20472;-77
2022/11/10 12:10:26;;;;;;;15.52;4.78;;;15.60;73.70;;;;;;5039084;28;20045;-75
2022/11/10 12:13:07;;;;;;;13.35;3.63;;;15.60;73.10;;;;;;5030289;28;20021;-75
2022/11/10 12:15:53;;;;;;;11.15;3.45;;;15.60;73.60;;;;;;5050588;28;20481;-75
2022/11/10 12:18:36;;;;;;;10.07;3.35;;;15.60;73.80;;;;;;5030551;28;20036;-77
2022/11/10 12:21:22;;;;;;;9.63;3.38;;;15.60;73.00;;;;;;5035681;28;20077;-77
2022/11/10 12:24:08;;;;;;;10.65;3.40;;;15.60;72.80;;;;;;5030993;28;20492;-77
2022/11/10 12:26:52;;;;;;;13.95;3.25;;;15.40;73.60;;;;;;5049484;28;20022;-76
2022/11/10 12:29:38;;;;;;;12.20;3.42;;;15.50;73.10;;;;;;5031403;28;20132;-76
2022/11/10 12:32:35;;;;;;;11.25;3.00;;;15.50;73.30;;;;;;5031188;28;20041;-76
2022/11/10 12:35:12;;;;;;;12.90;3.72;;;15.60;73.00;;;;;;5010155;28;20116;-76
2022/11/10 12:37:45;;;;;;;9.32;2.70;;;15.50;72.90;;;;;;5031023;28;20083;-75
2022/11/10 12:40:29;;;;;;;9.63;3.65;;;15.40;73.10;;;;;;5049540;28;20044;-75
2022/11/10 12:43:05;;;;;;;12.68;3.15;;;15.50;73.40;;;;;;5030615;28;20112;-76
2022/11/10 12:45:35;;;;;;;11.88;2.90;;;15.50;73.00;;;;;;5030438;28;20548;-76
2022/11/10 12:48:03;;;;;;;8.68;2.80;;;15.50;72.90;;;;;;5049516;28;20063;-75
2022/11/10 12:50:43;;;;;;;8.65;3.13;;;15.60;73.00;;;;;;5047684;28;20033;-76
2022/11/10 12:53:31;;;;;;;10.02;3.28;;;15.80;72.10;;;;;;5030878;28;20129;-76
2022/11/10 12:56:05;;;;;;;8.73;2.75;;;15.90;71.50;;;;;;5022023;28;20033;-75
2022/11/10 12:58:31;;;;;;;8.25;2.08;;;15.80;71.10;;;;;;5051924;28;20028;-77
2022/11/10 13:01:06;;;;;;;10.40;2.60;;;15.90;70.60;;;;;;5055170;28;20461;-76
2022/11/10 13:03:50;;;;;;;9.00;2.50;;;15.90;70.60;;;;;;5031513;28;20565;-76
2022/11/10 13:06:24;;;;;;;11.80;2.50;;;15.80;70.60;;;;;;5047554;28;20037;-76